createdAt,value
2023-05-09T00:04:56.992Z,65.00
2023-05-09T00:15:30.534Z,64.99
2023-05-09T00:20:34.194Z,64.59
2023-05-09T00:25:36.177Z,64.60
2023-05-09T00:30:38.164Z,64.52
2023-05-09T00:35:40.482Z,64.31
2023-05-09T00:40:42.692Z,64.40
2023-05-09T00:45:45.887Z,64.40
2023-05-09T00:50:52.811Z,64.33
2023-05-09T00:55:56.929Z,64.16
2023-05-09T01:05:14.129Z,64.05
2023-05-09T01:11:36.606Z,63.91
2023-05-09T01:16:56.471Z,63.94
2023-05-09T01:22:01.053Z,63.92
2023-05-09T01:27:09.196Z,63.79
2023-05-09T01:32:15.710Z,63.77
2023-05-09T01:37:20.695Z,63.87
2023-05-09T01:42:26.135Z,63.95
2023-05-09T01:51:55.251Z,63.64
2023-05-09T01:57:29.473Z,63.72
2023-05-09T02:02:36.382Z,63.82
2023-05-09T02:07:41.817Z,63.54
2023-05-09T02:16:54.245Z,63.59
2023-05-09T02:21:56.571Z,63.70
2023-05-09T02:26:58.944Z,63.61
2023-05-09T02:32:03.131Z,63.66
2023-05-09T02:37:09.380Z,63.78
2023-05-09T02:42:18.060Z,63.61
2023-05-09T02:49:32.040Z,63.72
2023-05-09T02:54:35.562Z,63.79
2023-05-09T02:59:37.726Z,63.72
2023-05-09T03:04:39.763Z,63.81
2023-05-09T03:09:42.233Z,64.07
2023-05-09T03:14:44.300Z,63.99
2023-05-09T03:19:46.500Z,64.09
2023-05-09T03:24:48.719Z,64.24
2023-05-09T03:29:50.657Z,64.15
2023-05-09T03:34:54.882Z,64.30
2023-05-09T03:39:56.924Z,64.23
2023-05-09T03:44:59.451Z,64.36
2023-05-09T03:50:03.851Z,64.34
2023-05-09T03:55:07.329Z,64.21
2023-05-09T04:05:45.276Z,64.26
2023-05-09T04:10:55.957Z,64.33
2023-05-09T04:15:59.517Z,64.43
2023-05-09T04:21:04.964Z,64.25
2023-05-09T04:26:07.483Z,64.25
2023-05-09T04:31:10.162Z,63.99
2023-05-09T04:36:12.738Z,63.89
2023-05-09T04:41:15.118Z,63.71
2023-05-09T04:46:17.598Z,63.52
2023-05-09T04:51:19.834Z,63.61
2023-05-09T04:56:22.781Z,63.79
2023-05-09T05:01:26.782Z,63.35
2023-05-09T05:06:30.150Z,63.39
2023-05-09T05:11:33.577Z,63.24
2023-05-09T05:16:36.319Z,63.18
2023-05-09T05:21:39.025Z,63.09
2023-05-09T05:26:41.645Z,62.88
2023-05-09T05:31:44.953Z,62.65
2023-05-09T05:36:47.779Z,62.79
2023-05-09T05:41:52.010Z,62.71
2023-05-09T05:46:54.894Z,62.49
2023-05-09T05:51:57.596Z,62.44
2023-05-09T05:57:01.285Z,62.39
2023-05-09T06:02:06.014Z,62.51
2023-05-09T06:07:11.042Z,62.54
2023-05-09T06:12:16.643Z,62.11
2023-05-09T06:20:46.732Z,61.77
2023-05-09T06:26:38.106Z,61.83
2023-05-09T06:31:41.057Z,61.20
2023-05-09T06:36:43.203Z,61.50
2023-05-09T06:41:45.344Z,61.21
2023-05-09T06:46:54.446Z,60.73
2023-05-09T06:51:56.446Z,60.12
2023-05-09T06:56:59.526Z,59.74
2023-05-09T07:02:01.765Z,58.91
2023-05-09T07:07:03.878Z,58.43
2023-05-09T07:12:06.293Z,57.90
2023-05-09T07:17:22.126Z,57.44
2023-05-09T07:22:25.204Z,57.22
2023-05-09T07:27:27.171Z,56.77
2023-05-09T07:32:33.165Z,55.76
2023-05-09T07:37:37.349Z,55.80
2023-05-09T07:42:39.914Z,55.28
2023-05-09T07:47:42.058Z,55.15
2023-05-09T07:52:44.428Z,53.83
2023-05-09T07:57:46.754Z,52.61
2023-05-09T08:02:54.130Z,51.95
2023-05-09T08:07:56.359Z,52.12
2023-05-09T08:13:02.987Z,51.05
2023-05-09T08:18:06.715Z,50.46
2023-05-09T08:23:09.184Z,49.93
2023-05-09T08:28:11.615Z,50.94
2023-05-09T08:33:13.722Z,53.14
2023-05-09T08:38:15.919Z,57.16
2023-05-09T08:43:24.480Z,58.92
2023-05-09T08:48:38.563Z,61.67
2023-05-09T08:53:41.124Z,63.75
2023-05-09T08:58:43.283Z,66.05
2023-05-09T09:03:49.486Z,68.24
2023-05-09T09:08:55.032Z,69.53
2023-05-09T09:14:27.775Z,71.58
2023-05-09T09:19:31.685Z,69.86
2023-05-09T09:24:34.713Z,69.98
2023-05-09T09:29:38.777Z,69.06
2023-05-09T09:34:40.882Z,67.78
2023-05-09T09:39:55.006Z,67.19
2023-05-09T09:45:18.481Z,68.42
2023-05-09T09:50:25.571Z,67.07
2023-05-09T09:55:34.842Z,66.76
2023-05-09T10:00:37.064Z,67.38
2023-05-09T10:05:41.305Z,67.85
2023-05-09T10:10:43.708Z,67.45
2023-05-09T10:15:53.708Z,68.20
2023-05-09T10:20:57.219Z,68.64
2023-05-09T10:26:32.046Z,70.76
2023-05-09T10:31:37.159Z,70.49
2023-05-09T10:36:39.370Z,70.11
2023-05-09T10:41:47.521Z,69.69
2023-05-09T10:46:58.305Z,69.54
2023-05-09T10:52:04.332Z,71.99
2023-05-09T10:57:09.769Z,71.71
2023-05-09T11:02:14.075Z,71.12
2023-05-09T11:07:26.944Z,72.81
2023-05-09T11:12:28.876Z,72.96
2023-05-09T11:17:50.958Z,74.70
2023-05-09T11:22:53.579Z,74.55
2023-05-09T11:28:01.434Z,72.88
2023-05-09T11:33:06.861Z,71.81
2023-05-09T11:38:09.535Z,73.29
2023-05-09T11:43:13.166Z,73.16
2023-05-09T11:48:15.174Z,73.41
2023-05-09T11:53:17.272Z,73.82
2023-05-09T11:58:20.227Z,74.40
2023-05-09T12:03:22.563Z,74.55
2023-05-09T12:08:25.276Z,74.47
2023-05-09T12:13:27.407Z,73.90
2023-05-09T12:18:30.917Z,72.82
2023-05-09T12:23:36.295Z,71.07
2023-05-09T12:28:42.507Z,70.47
2023-05-09T12:33:45.102Z,71.67
2023-05-09T12:38:56.885Z,72.23
2023-05-09T12:43:59.096Z,72.68
2023-05-09T12:49:01.113Z,72.46
2023-05-09T12:54:05.029Z,71.23
2023-05-09T12:59:11.442Z,70.45
2023-05-09T13:04:19.894Z,71.67
2023-05-09T13:09:23.659Z,71.83
2023-05-09T13:14:26.361Z,72.52
2023-05-09T13:19:28.709Z,71.42
2023-05-09T13:24:30.797Z,72.52
2023-05-09T13:29:33.142Z,71.93
2023-05-09T13:34:35.493Z,65.12
2023-05-09T13:39:37.537Z,64.23
2023-05-09T13:44:39.611Z,66.03
2023-05-09T13:49:41.590Z,67.66
2023-05-09T13:54:44.260Z,68.53
2023-05-09T13:59:46.312Z,68.67
2023-05-09T14:04:48.552Z,71.98
2023-05-09T14:09:56.188Z,72.86
2023-05-09T14:15:01.537Z,73.30
2023-05-09T14:20:04.035Z,73.37
2023-05-09T14:25:06.567Z,74.57
2023-05-09T14:30:09.417Z,74.08
2023-05-09T14:35:11.851Z,72.77
2023-05-09T14:40:14.691Z,72.59
2023-05-09T14:45:17.440Z,71.89
2023-05-09T14:50:20.664Z,70.24
2023-05-09T14:55:23.271Z,70.58
2023-05-09T15:00:28.724Z,70.57
2023-05-09T15:05:31.275Z,70.26
2023-05-09T15:10:34.222Z,70.33
2023-05-09T15:20:37.949Z,70.99
2023-05-09T15:25:43.534Z,72.72
2023-05-09T15:30:46.120Z,73.00
2023-05-09T15:35:50.306Z,73.84
2023-05-09T15:40:57.692Z,74.37
2023-05-09T15:46:02.620Z,74.68
2023-05-09T15:51:05.311Z,75.91
2023-05-09T15:56:16.480Z,76.99
2023-05-09T16:01:19.172Z,77.67
2023-05-09T16:06:21.406Z,79.16
2023-05-09T16:11:29.064Z,79.85
2023-05-09T16:16:40.308Z,79.77
2023-05-09T16:21:45.706Z,80.64
2023-05-09T16:26:51.883Z,80.94
2023-05-09T16:31:53.986Z,81.79
2023-05-09T16:36:56.592Z,82.46
2023-05-09T16:41:59.649Z,83.05
2023-05-09T16:47:06.325Z,83.54
2023-05-09T16:52:08.440Z,83.27
2023-05-09T16:57:10.930Z,83.96
2023-05-09T17:02:13.560Z,84.49
2023-05-09T17:07:23.767Z,84.81
2023-05-09T17:12:36.164Z,84.96
2023-05-09T17:17:41.677Z,85.22
2023-05-09T17:22:43.713Z,85.19
2023-05-09T17:27:46.150Z,85.53
2023-05-09T17:32:56.825Z,85.67
2023-05-09T17:37:58.732Z,85.79
2023-05-09T17:43:00.771Z,85.25
2023-05-09T17:48:03.654Z,85.22
2023-05-09T17:53:08.810Z,85.49
2023-05-09T17:58:11.603Z,85.44
2023-05-09T18:03:13.723Z,85.69
2023-05-09T18:08:17.175Z,85.88
2023-05-09T18:13:19.279Z,86.57
2023-05-09T18:22:48.762Z,88.18
2023-05-09T18:27:51.123Z,88.86
2023-05-09T18:32:53.776Z,89.07
2023-05-09T18:37:55.944Z,89.15
2023-05-09T18:42:58.540Z,89.16
2023-05-09T18:48:04.181Z,89.70
2023-05-09T18:53:06.243Z,89.40
2023-05-09T18:58:14.155Z,89.68
2023-05-09T19:03:17.653Z,89.27
2023-05-09T19:08:19.942Z,88.97
2023-05-09T19:13:22.875Z,85.97
2023-05-09T19:18:28.365Z,81.97
2023-05-09T19:23:30.957Z,80.19
2023-05-09T19:28:34.870Z,77.89
2023-05-09T19:33:38.303Z,77.13
2023-05-09T19:38:40.863Z,78.12
2023-05-09T19:43:43.175Z,79.01
2023-05-09T19:48:45.649Z,79.16
2023-05-09T19:53:49.133Z,79.99
2023-05-09T19:58:51.334Z,79.59
2023-05-09T20:03:53.935Z,80.05
2023-05-09T20:09:00.110Z,80.67
2023-05-09T20:14:02.528Z,80.53
2023-05-09T20:19:07.591Z,80.80
2023-05-09T20:24:09.903Z,80.62
2023-05-09T20:29:11.987Z,80.68
2023-05-09T20:34:17.867Z,80.60
2023-05-09T20:39:21.234Z,80.76
2023-05-09T20:44:23.380Z,80.82
2023-05-09T20:49:25.937Z,79.99
2023-05-09T20:54:29.121Z,79.75
2023-05-09T20:59:31.309Z,79.29
2023-05-09T21:04:33.446Z,79.54
2023-05-09T21:09:36.155Z,79.24
2023-05-09T21:14:38.215Z,78.64
2023-05-09T21:19:40.420Z,78.24
2023-05-09T21:24:42.593Z,78.08
2023-05-09T21:29:49.278Z,76.98
2023-05-09T21:34:51.304Z,76.56
2023-05-09T21:39:53.467Z,76.71
2023-05-09T21:44:55.550Z,75.92
2023-05-09T21:49:57.818Z,75.31
2023-05-09T21:54:59.817Z,75.08
2023-05-09T22:00:04.912Z,75.01
2023-05-09T22:05:15.010Z,74.76
2023-05-09T22:10:17.519Z,73.16
2023-05-09T22:15:19.774Z,73.36
2023-05-09T22:20:22.138Z,73.22
2023-05-09T22:25:29.314Z,72.92
2023-05-09T22:30:31.425Z,72.44
2023-05-09T22:35:33.550Z,72.66
2023-05-09T22:40:35.912Z,72.48
2023-05-09T22:46:06.253Z,72.40
2023-05-09T22:51:08.625Z,72.96
2023-05-09T22:56:11.517Z,73.49
2023-05-09T23:01:13.737Z,74.08
2023-05-09T23:06:17.347Z,74.12
2023-05-09T23:11:20.450Z,74.52
2023-05-09T23:16:22.845Z,74.68
2023-05-09T23:21:25.125Z,74.89
2023-05-09T23:26:27.387Z,74.94
2023-05-09T23:31:29.495Z,75.17
2023-05-09T23:36:31.705Z,75.14
2023-05-09T23:41:33.752Z,75.43
2023-05-09T23:46:35.778Z,75.33
2023-05-09T23:51:37.768Z,75.32
2023-05-09T23:56:40.075Z,75.17
